sensor_id;sensor_type;location;lat;lon;timestamp;temperature;humidity
17483;DHT22;8858;52.308;20.994;2023-04-09T00:00:48;9.50;99.90
17483;DHT22;8858;52.308;20.994;2023-04-09T00:03:16;9.40;99.90
17483;DHT22;8858;52.308;20.994;2023-04-09T00:05:48;9.40;99.90
17483;DHT22;8858;52.308;20.994;2023-04-09T00:08:19;9.40;99.90
17483;DHT22;8858;52.308;20.994;2023-04-09T00:10:48;9.50;99.90
17483;DHT22;8858;52.308;20.994;2023-04-09T00:13:16;9.40;99.90
17483;DHT22;8858;52.308;20.994;2023-04-09T00:16:04;9.50;99.90
17483;DHT22;8858;52.308;20.994;2023-04-09T00:18:35;9.40;99.90
17483;DHT22;8858;52.308;20.994;2023-04-09T00:21:04;9.40;99.90
17483;DHT22;8858;52.308;20.994;2023-04-09T00:23:34;9.50;99.90
17483;DHT22;8858;52.308;20.994;2023-04-09T00:26:04;9.50;99.90
17483;DHT22;8858;52.308;20.994;2023-04-09T00:28:33;9.50;99.90
17483;DHT22;8858;52.308;20.994;2023-04-09T00:31:05;9.60;99.90
17483;DHT22;8858;52.308;20.994;2023-04-09T00:33:33;9.50;99.90
17483;DHT22;8858;52.308;20.994;2023-04-09T00:36:01;9.50;99.90
17483;DHT22;8858;52.308;20.994;2023-04-09T00:38:30;9.50;99.90
17483;DHT22;8858;52.308;20.994;2023-04-09T00:41:00;9.50;99.90
17483;DHT22;8858;52.308;20.994;2023-04-09T00:43:31;9.50;99.90
17483;DHT22;8858;52.308;20.994;2023-04-09T00:45:59;9.40;99.90
17483;DHT22;8858;52.308;20.994;2023-04-09T00:48:28;9.50;99.90
17483;DHT22;8858;52.308;20.994;2023-04-09T00:50:57;9.50;99.90
17483;DHT22;8858;52.308;20.994;2023-04-09T00:53:28;9.50;99.90
17483;DHT22;8858;52.308;20.994;2023-04-09T00:56:00;9.50;99.90
17483;DHT22;8858;52.308;20.994;2023-04-09T00:58:28;9.40;99.90
17483;DHT22;8858;52.308;20.994;2023-04-09T01:00:57;9.50;99.90
17483;DHT22;8858;52.308;20.994;2023-04-09T01:03:26;9.50;99.90
17483;DHT22;8858;52.308;20.994;2023-04-09T01:06:02;9.40;99.90
17483;DHT22;8858;52.308;20.994;2023-04-09T01:08:44;9.50;99.90
17483;DHT22;8858;52.308;20.994;2023-04-09T01:11:24;9.50;99.90
17483;DHT22;8858;52.308;20.994;2023-04-09T01:14:03;9.50;99.90
17483;DHT22;8858;52.308;20.994;2023-04-09T01:16:36;9.40;99.90
17483;DHT22;8858;52.308;20.994;2023-04-09T01:19:14;9.40;99.90
17483;DHT22;8858;52.308;20.994;2023-04-09T01:21:46;9.40;99.90
17483;DHT22;8858;52.308;20.994;2023-04-09T01:24:25;9.40;99.90
17483;DHT22;8858;52.308;20.994;2023-04-09T01:27:02;9.40;99.90
17483;DHT22;8858;52.308;20.994;2023-04-09T01:29:46;9.40;99.90
17483;DHT22;8858;52.308;20.994;2023-04-09T01:32:17;9.40;99.90
17483;DHT22;8858;52.308;20.994;2023-04-09T01:34:50;9.40;99.90
17483;DHT22;8858;52.308;20.994;2023-04-09T01:37:19;9.40;99.90
17483;DHT22;8858;52.308;20.994;2023-04-09T01:39:49;9.40;99.90
17483;DHT22;8858;52.308;20.994;2023-04-09T01:42:18;9.40;99.90
17483;DHT22;8858;52.308;20.994;2023-04-09T01:44:49;9.40;99.90
17483;DHT22;8858;52.308;20.994;2023-04-09T01:47:19;9.40;99.90
17483;DHT22;8858;52.308;20.994;2023-04-09T01:49:48;9.40;99.90
17483;DHT22;8858;52.308;20.994;2023-04-09T01:52:16;9.40;99.90
17483;DHT22;8858;52.308;20.994;2023-04-09T01:54:45;9.40;99.90
17483;DHT22;8858;52.308;20.994;2023-04-09T01:57:17;9.40;99.90
17483;DHT22;8858;52.308;20.994;2023-04-09T01:59:45;9.40;99.90
17483;DHT22;8858;52.308;20.994;2023-04-09T02:02:19;9.40;99.90
17483;DHT22;8858;52.308;20.994;2023-04-09T02:04:52;9.40;99.90
17483;DHT22;8858;52.308;20.994;2023-04-09T02:07:27;9.40;99.90
17483;DHT22;8858;52.308;20.994;2023-04-09T02:09:58;9.40;99.90
17483;DHT22;8858;52.308;20.994;2023-04-09T02:12:28;9.40;99.90
17483;DHT22;8858;52.308;20.994;2023-04-09T02:14:59;9.40;99.90
17483;DHT22;8858;52.308;20.994;2023-04-09T02:17:29;9.30;99.90
17483;DHT22;8858;52.308;20.994;2023-04-09T02:20:01;9.20;99.90
17483;DHT22;8858;52.308;20.994;2023-04-09T02:22:30;9.30;99.90
17483;DHT22;8858;52.308;20.994;2023-04-09T02:24:59;9.30;99.90
17483;DHT22;8858;52.308;20.994;2023-04-09T02:27:27;9.30;99.90
17483;DHT22;8858;52.308;20.994;2023-04-09T02:29:56;9.30;99.90
17483;DHT22;8858;52.308;20.994;2023-04-09T02:32:24;9.30;99.90
17483;DHT22;8858;52.308;20.994;2023-04-09T02:34:54;9.30;99.90
17483;DHT22;8858;52.308;20.994;2023-04-09T02:37:22;9.30;99.90
17483;DHT22;8858;52.308;20.994;2023-04-09T02:39:52;9.40;99.90
17483;DHT22;8858;52.308;20.994;2023-04-09T02:42:20;9.40;99.90
17483;DHT22;8858;52.308;20.994;2023-04-09T02:44:49;9.40;99.90
17483;DHT22;8858;52.308;20.994;2023-04-09T02:47:17;9.40;99.90
17483;DHT22;8858;52.308;20.994;2023-04-09T02:49:46;9.40;99.90
17483;DHT22;8858;52.308;20.994;2023-04-09T02:52:17;9.40;99.90
17483;DHT22;8858;52.308;20.994;2023-04-09T02:54:49;9.50;99.90
17483;DHT22;8858;52.308;20.994;2023-04-09T02:57:17;9.40;99.90
17483;DHT22;8858;52.308;20.994;2023-04-09T02:59:46;9.40;99.90
17483;DHT22;8858;52.308;20.994;2023-04-09T03:02:14;9.40;99.90
17483;DHT22;8858;52.308;20.994;2023-04-09T03:04:46;9.40;99.90
17483;DHT22;8858;52.308;20.994;2023-04-09T03:07:15;9.20;99.90
17483;DHT22;8858;52.308;20.994;2023-04-09T03:09:44;9.20;99.90
17483;DHT22;8858;52.308;20.994;2023-04-09T03:12:12;9.20;99.90
17483;DHT22;8858;52.308;20.994;2023-04-09T03:14:41;9.20;99.90
17483;DHT22;8858;52.308;20.994;2023-04-09T03:17:12;9.20;99.90
17483;DHT22;8858;52.308;20.994;2023-04-09T03:19:43;9.20;99.90
17483;DHT22;8858;52.308;20.994;2023-04-09T03:22:14;9.20;99.90
17483;DHT22;8858;52.308;20.994;2023-04-09T03:24:43;9.10;99.90
17483;DHT22;8858;52.308;20.994;2023-04-09T03:27:11;9.20;99.90
17483;DHT22;8858;52.308;20.994;2023-04-09T03:29:39;9.20;99.90
17483;DHT22;8858;52.308;20.994;2023-04-09T03:32:10;9.10;99.90
17483;DHT22;8858;52.308;20.994;2023-04-09T03:34:38;9.20;99.90
17483;DHT22;8858;52.308;20.994;2023-04-09T03:37:07;9.10;99.90
17483;DHT22;8858;52.308;20.994;2023-04-09T03:39:36;9.10;99.90
17483;DHT22;8858;52.308;20.994;2023-04-09T03:42:09;9.10;99.90
17483;DHT22;8858;52.308;20.994;2023-04-09T03:44:45;9.10;99.90
17483;DHT22;8858;52.308;20.994;2023-04-09T03:47:42;9.10;99.90
17483;DHT22;8858;52.308;20.994;2023-04-09T03:50:13;9.10;99.90
17483;DHT22;8858;52.308;20.994;2023-04-09T03:52:48;9.10;99.90
17483;DHT22;8858;52.308;20.994;2023-04-09T03:55:21;9.20;99.90
17483;DHT22;8858;52.308;20.994;2023-04-09T03:57:52;9.20;99.90
17483;DHT22;8858;52.308;20.994;2023-04-09T04:00:27;9.10;99.90
17483;DHT22;8858;52.308;20.994;2023-04-09T04:03:17;9.10;99.90
17483;DHT22;8858;52.308;20.994;2023-04-09T04:06:05;9.10;99.90
17483;DHT22;8858;52.308;20.994;2023-04-09T04:08:43;9.10;99.90
17483;DHT22;8858;52.308;20.994;2023-04-09T04:11:13;9.00;99.90
17483;DHT22;8858;52.308;20.994;2023-04-09T04:13:46;9.00;99.90
17483;DHT22;8858;52.308;20.994;2023-04-09T04:16:14;9.00;99.90
17483;DHT22;8858;52.308;20.994;2023-04-09T04:18:42;8.90;99.90
17483;DHT22;8858;52.308;20.994;2023-04-09T04:21:12;8.90;99.90
17483;DHT22;8858;52.308;20.994;2023-04-09T04:23:44;8.80;99.90
17483;DHT22;8858;52.308;20.994;2023-04-09T04:26:17;8.80;99.90
17483;DHT22;8858;52.308;20.994;2023-04-09T04:28:47;8.70;99.90
17483;DHT22;8858;52.308;20.994;2023-04-09T04:31:35;8.70;99.90
17483;DHT22;8858;52.308;20.994;2023-04-09T04:34:04;8.70;99.90
17483;DHT22;8858;52.308;20.994;2023-04-09T04:36:32;8.70;99.90
17483;DHT22;8858;52.308;20.994;2023-04-09T04:39:01;8.70;99.90
17483;DHT22;8858;52.308;20.994;2023-04-09T04:41:45;8.70;99.90
17483;DHT22;8858;52.308;20.994;2023-04-09T04:44:21;8.80;99.90
17483;DHT22;8858;52.308;20.994;2023-04-09T04:46:55;8.80;99.90
17483;DHT22;8858;52.308;20.994;2023-04-09T04:49:24;8.90;99.90
17483;DHT22;8858;52.308;20.994;2023-04-09T04:51:52;8.90;99.90
17483;DHT22;8858;52.308;20.994;2023-04-09T04:54:20;8.90;99.90
17483;DHT22;8858;52.308;20.994;2023-04-09T04:56:52;9.00;99.90
17483;DHT22;8858;52.308;20.994;2023-04-09T04:59:40;9.00;99.90
17483;DHT22;8858;52.308;20.994;2023-04-09T05:02:10;9.00;99.90
17483;DHT22;8858;52.308;20.994;2023-04-09T05:04:50;9.00;99.90
17483;DHT22;8858;52.308;20.994;2023-04-09T05:07:22;9.10;99.90
17483;DHT22;8858;52.308;20.994;2023-04-09T05:09:54;9.10;99.90
17483;DHT22;8858;52.308;20.994;2023-04-09T05:12:22;9.10;99.90
17483;DHT22;8858;52.308;20.994;2023-04-09T05:14:53;9.20;99.90
17483;DHT22;8858;52.308;20.994;2023-04-09T05:17:23;9.20;99.90
17483;DHT22;8858;52.308;20.994;2023-04-09T05:19:53;9.20;99.90
17483;DHT22;8858;52.308;20.994;2023-04-09T05:22:30;9.30;99.90
17483;DHT22;8858;52.308;20.994;2023-04-09T05:24:58;9.30;99.90
17483;DHT22;8858;52.308;20.994;2023-04-09T05:27:27;9.30;99.90
17483;DHT22;8858;52.308;20.994;2023-04-09T05:30:02;9.40;99.90
17483;DHT22;8858;52.308;20.994;2023-04-09T05:32:30;9.40;99.90
17483;DHT22;8858;52.308;20.994;2023-04-09T05:34:59;9.50;99.90
17483;DHT22;8858;52.308;20.994;2023-04-09T05:37:29;9.50;99.90
17483;DHT22;8858;52.308;20.994;2023-04-09T05:39:58;9.60;99.90
17483;DHT22;8858;52.308;20.994;2023-04-09T05:42:30;9.70;99.90
17483;DHT22;8858;52.308;20.994;2023-04-09T05:45:03;9.70;99.90
17483;DHT22;8858;52.308;20.994;2023-04-09T05:47:38;9.80;99.90
17483;DHT22;8858;52.308;20.994;2023-04-09T05:50:13;9.90;99.90
17483;DHT22;8858;52.308;20.994;2023-04-09T05:52:42;9.90;99.90
17483;DHT22;8858;52.308;20.994;2023-04-09T05:55:12;10.00;99.90
17483;DHT22;8858;52.308;20.994;2023-04-09T05:57:46;10.00;99.90
17483;DHT22;8858;52.308;20.994;2023-04-09T06:00:19;10.10;99.90
17483;DHT22;8858;52.308;20.994;2023-04-09T06:02:49;10.10;99.90
17483;DHT22;8858;52.308;20.994;2023-04-09T06:05:17;10.20;99.90
17483;DHT22;8858;52.308;20.994;2023-04-09T06:07:46;10.20;99.90
17483;DHT22;8858;52.308;20.994;2023-04-09T06:10:17;10.20;99.90
17483;DHT22;8858;52.308;20.994;2023-04-09T06:12:48;10.20;99.90
17483;DHT22;8858;52.308;20.994;2023-04-09T06:15:16;10.30;99.90
17483;DHT22;8858;52.308;20.994;2023-04-09T06:17:46;10.40;99.90
17483;DHT22;8858;52.308;20.994;2023-04-09T06:20:14;10.40;99.90
17483;DHT22;8858;52.308;20.994;2023-04-09T06:22:45;10.50;99.90
17483;DHT22;8858;52.308;20.994;2023-04-09T06:25:13;10.50;99.90
17483;DHT22;8858;52.308;20.994;2023-04-09T06:27:41;10.50;99.90
17483;DHT22;8858;52.308;20.994;2023-04-09T06:30:12;10.50;99.90
17483;DHT22;8858;52.308;20.994;2023-04-09T06:32:40;10.60;99.90
17483;DHT22;8858;52.308;20.994;2023-04-09T06:35:22;10.60;99.90
17483;DHT22;8858;52.308;20.994;2023-04-09T06:37:50;10.70;99.90
17483;DHT22;8858;52.308;20.994;2023-04-09T06:40:18;10.70;99.90
17483;DHT22;8858;52.308;20.994;2023-04-09T06:42:49;10.70;99.90
17483;DHT22;8858;52.308;20.994;2023-04-09T06:45:28;10.60;99.90
17483;DHT22;8858;52.308;20.994;2023-04-09T06:47:56;10.70;99.90
17483;DHT22;8858;52.308;20.994;2023-04-09T06:50:26;10.70;99.90
17483;DHT22;8858;52.308;20.994;2023-04-09T06:52:54;10.80;99.90
17483;DHT22;8858;52.308;20.994;2023-04-09T06:55:22;10.90;99.90
17483;DHT22;8858;52.308;20.994;2023-04-09T06:57:55;10.90;99.90
17483;DHT22;8858;52.308;20.994;2023-04-09T07:00:23;11.00;99.90
17483;DHT22;8858;52.308;20.994;2023-04-09T07:02:52;11.00;99.90
17483;DHT22;8858;52.308;20.994;2023-04-09T07:05:20;11.00;99.90
17483;DHT22;8858;52.308;20.994;2023-04-09T07:07:54;11.10;99.90
17483;DHT22;8858;52.308;20.994;2023-04-09T07:10:23;11.20;99.90
17483;DHT22;8858;52.308;20.994;2023-04-09T07:12:51;11.20;99.90
17483;DHT22;8858;52.308;20.994;2023-04-09T07:15:19;11.20;99.90
17483;DHT22;8858;52.308;20.994;2023-04-09T07:17:48;11.30;99.90
17483;DHT22;8858;52.308;20.994;2023-04-09T07:20:16;11.40;99.90
17483;DHT22;8858;52.308;20.994;2023-04-09T07:22:44;11.40;99.90
17483;DHT22;8858;52.308;20.994;2023-04-09T07:25:15;11.50;99.90
17483;DHT22;8858;52.308;20.994;2023-04-09T07:27:43;11.60;99.90
17483;DHT22;8858;52.308;20.994;2023-04-09T07:30:13;11.60;99.90
17483;DHT22;8858;52.308;20.994;2023-04-09T07:32:41;11.60;99.90
17483;DHT22;8858;52.308;20.994;2023-04-09T07:35:09;11.70;99.90
17483;DHT22;8858;52.308;20.994;2023-04-09T07:37:37;11.70;99.90
17483;DHT22;8858;52.308;20.994;2023-04-09T07:40:06;11.80;99.90
17483;DHT22;8858;52.308;20.994;2023-04-09T07:42:37;11.90;99.90
17483;DHT22;8858;52.308;20.994;2023-04-09T07:45:06;11.90;99.90
17483;DHT22;8858;52.308;20.994;2023-04-09T07:47:34;12.00;99.90
17483;DHT22;8858;52.308;20.994;2023-04-09T07:50:03;12.10;99.90
17483;DHT22;8858;52.308;20.994;2023-04-09T07:52:32;12.20;99.90
17483;DHT22;8858;52.308;20.994;2023-04-09T07:55:00;12.30;99.90
17483;DHT22;8858;52.308;20.994;2023-04-09T07:57:30;12.30;99.90
17483;DHT22;8858;52.308;20.994;2023-04-09T08:00:00;12.30;99.90
17483;DHT22;8858;52.308;20.994;2023-04-09T08:02:38;12.40;99.90
17483;DHT22;8858;52.308;20.994;2023-04-09T08:05:08;12.50;99.90
17483;DHT22;8858;52.308;20.994;2023-04-09T08:07:37;12.60;99.90
17483;DHT22;8858;52.308;20.994;2023-04-09T08:10:07;12.70;99.90
17483;DHT22;8858;52.308;20.994;2023-04-09T08:12:39;12.80;99.90
17483;DHT22;8858;52.308;20.994;2023-04-09T08:15:10;12.80;99.90
17483;DHT22;8858;52.308;20.994;2023-04-09T08:17:39;12.80;99.90
17483;DHT22;8858;52.308;20.994;2023-04-09T08:20:08;13.00;99.90
17483;DHT22;8858;52.308;20.994;2023-04-09T08:22:36;13.00;99.90
17483;DHT22;8858;52.308;20.994;2023-04-09T08:25:05;13.10;99.90
17483;DHT22;8858;52.308;20.994;2023-04-09T08:27:33;13.30;99.90
17483;DHT22;8858;52.308;20.994;2023-04-09T08:30:03;13.40;99.90
17483;DHT22;8858;52.308;20.994;2023-04-09T08:32:34;13.40;99.90
17483;DHT22;8858;52.308;20.994;2023-04-09T08:35:03;13.50;99.90
17483;DHT22;8858;52.308;20.994;2023-04-09T08:37:32;13.50;99.90
17483;DHT22;8858;52.308;20.994;2023-04-09T08:40:00;13.60;99.90
17483;DHT22;8858;52.308;20.994;2023-04-09T08:42:30;13.70;99.90
17483;DHT22;8858;52.308;20.994;2023-04-09T08:45:03;13.80;99.90
17483;DHT22;8858;52.308;20.994;2023-04-09T08:47:33;13.80;99.90
17483;DHT22;8858;52.308;20.994;2023-04-09T08:50:08;13.80;99.90
17483;DHT22;8858;52.308;20.994;2023-04-09T08:52:38;13.80;99.90
17483;DHT22;8858;52.308;20.994;2023-04-09T08:55:07;13.80;99.90
17483;DHT22;8858;52.308;20.994;2023-04-09T08:57:37;13.70;99.90
17483;DHT22;8858;52.308;20.994;2023-04-09T09:00:07;13.80;99.90
17483;DHT22;8858;52.308;20.994;2023-04-09T09:02:38;13.90;99.90
17483;DHT22;8858;52.308;20.994;2023-04-09T09:05:35;13.90;99.90
17483;DHT22;8858;52.308;20.994;2023-04-09T09:08:05;14.00;99.90
17483;DHT22;8858;52.308;20.994;2023-04-09T09:10:38;14.10;99.90
17483;DHT22;8858;52.308;20.994;2023-04-09T09:13:16;14.20;99.90
17483;DHT22;8858;52.308;20.994;2023-04-09T09:15:49;14.20;99.90
17483;DHT22;8858;52.308;20.994;2023-04-09T09:18:36;14.20;99.90
17483;DHT22;8858;52.308;20.994;2023-04-09T09:21:09;14.20;99.90
17483;DHT22;8858;52.308;20.994;2023-04-09T09:23:38;14.20;99.90
17483;DHT22;8858;52.308;20.994;2023-04-09T09:26:12;14.20;99.90
17483;DHT22;8858;52.308;20.994;2023-04-09T09:28:44;14.10;99.90
17483;DHT22;8858;52.308;20.994;2023-04-09T09:31:13;14.20;99.90
17483;DHT22;8858;52.308;20.994;2023-04-09T09:33:44;14.10;99.90
17483;DHT22;8858;52.308;20.994;2023-04-09T09:36:14;14.10;99.90
17483;DHT22;8858;52.308;20.994;2023-04-09T09:38:52;14.10;99.90
17483;DHT22;8858;52.308;20.994;2023-04-09T09:41:24;14.10;99.90
17483;DHT22;8858;52.308;20.994;2023-04-09T09:43:53;14.10;99.90
17483;DHT22;8858;52.308;20.994;2023-04-09T09:46:25;14.10;99.90
17483;DHT22;8858;52.308;20.994;2023-04-09T09:48:55;14.20;99.90
17483;DHT22;8858;52.308;20.994;2023-04-09T09:51:27;14.20;99.90
17483;DHT22;8858;52.308;20.994;2023-04-09T09:53:58;14.40;99.90
17483;DHT22;8858;52.308;20.994;2023-04-09T09:56:30;14.60;99.90
17483;DHT22;8858;52.308;20.994;2023-04-09T09:59:05;14.80;99.90
17483;DHT22;8858;52.308;20.994;2023-04-09T10:01:35;15.00;99.90
17483;DHT22;8858;52.308;20.994;2023-04-09T10:04:08;15.00;99.90
17483;DHT22;8858;52.308;20.994;2023-04-09T10:06:42;14.90;99.90
17483;DHT22;8858;52.308;20.994;2023-04-09T10:09:10;14.50;99.90
17483;DHT22;8858;52.308;20.994;2023-04-09T10:11:40;14.60;99.90
17483;DHT22;8858;52.308;20.994;2023-04-09T10:14:11;14.70;99.90
17483;DHT22;8858;52.308;20.994;2023-04-09T10:16:43;14.80;99.90
17483;DHT22;8858;52.308;20.994;2023-04-09T10:19:14;14.80;99.90
17483;DHT22;8858;52.308;20.994;2023-04-09T10:21:49;15.00;99.90
17483;DHT22;8858;52.308;20.994;2023-04-09T10:24:20;15.10;99.90
17483;DHT22;8858;52.308;20.994;2023-04-09T10:26:53;15.10;99.90
17483;DHT22;8858;52.308;20.994;2023-04-09T10:29:27;15.10;99.90
17483;DHT22;8858;52.308;20.994;2023-04-09T10:32:03;15.10;99.90
17483;DHT22;8858;52.308;20.994;2023-04-09T10:34:37;15.20;99.90
17483;DHT22;8858;52.308;20.994;2023-04-09T10:37:07;15.20;99.90
17483;DHT22;8858;52.308;20.994;2023-04-09T10:39:39;15.20;99.90
17483;DHT22;8858;52.308;20.994;2023-04-09T10:42:13;15.20;99.90
17483;DHT22;8858;52.308;20.994;2023-04-09T10:44:42;15.30;99.90
17483;DHT22;8858;52.308;20.994;2023-04-09T10:47:11;15.40;99.90
17483;DHT22;8858;52.308;20.994;2023-04-09T10:50:13;15.50;99.90
17483;DHT22;8858;52.308;20.994;2023-04-09T10:52:42;15.70;99.90
17483;DHT22;8858;52.308;20.994;2023-04-09T10:55:29;15.50;99.90
17483;DHT22;8858;52.308;20.994;2023-04-09T10:57:57;15.50;99.90
17483;DHT22;8858;52.308;20.994;2023-04-09T11:00:26;15.70;99.90
17483;DHT22;8858;52.308;20.994;2023-04-09T11:03:16;15.80;99.90
17483;DHT22;8858;52.308;20.994;2023-04-09T11:05:54;16.00;99.90
17483;DHT22;8858;52.308;20.994;2023-04-09T11:08:28;15.90;99.90
17483;DHT22;8858;52.308;20.994;2023-04-09T11:10:58;16.00;99.90
17483;DHT22;8858;52.308;20.994;2023-04-09T11:13:29;16.00;99.90
17483;DHT22;8858;52.308;20.994;2023-04-09T11:15:58;15.70;99.90
17483;DHT22;8858;52.308;20.994;2023-04-09T11:18:28;15.50;99.90
17483;DHT22;8858;52.308;20.994;2023-04-09T11:21:00;15.40;99.90
17483;DHT22;8858;52.308;20.994;2023-04-09T11:23:30;15.40;99.90
17483;DHT22;8858;52.308;20.994;2023-04-09T11:26:02;15.40;99.90
17483;DHT22;8858;52.308;20.994;2023-04-09T11:28:33;15.50;99.90
17483;DHT22;8858;52.308;20.994;2023-04-09T11:31:03;15.60;99.90
17483;DHT22;8858;52.308;20.994;2023-04-09T11:33:32;15.70;99.90
17483;DHT22;8858;52.308;20.994;2023-04-09T11:36:04;15.80;99.90
17483;DHT22;8858;52.308;20.994;2023-04-09T11:38:32;16.00;99.90
17483;DHT22;8858;52.308;20.994;2023-04-09T11:41:00;16.10;99.90
17483;DHT22;8858;52.308;20.994;2023-04-09T11:43:28;16.20;99.90
17483;DHT22;8858;52.308;20.994;2023-04-09T11:45:58;16.30;99.90
17483;DHT22;8858;52.308;20.994;2023-04-09T11:48:26;16.30;99.90
17483;DHT22;8858;52.308;20.994;2023-04-09T11:50:57;16.30;99.90
17483;DHT22;8858;52.308;20.994;2023-04-09T11:53:30;16.40;99.90
17483;DHT22;8858;52.308;20.994;2023-04-09T11:55:58;16.70;99.90
17483;DHT22;8858;52.308;20.994;2023-04-09T11:58:27;17.10;99.90
17483;DHT22;8858;52.308;20.994;2023-04-09T12:00:57;17.40;99.90
17483;DHT22;8858;52.308;20.994;2023-04-09T12:03:28;17.70;99.90
17483;DHT22;8858;52.308;20.994;2023-04-09T12:06:00;17.90;99.90
17483;DHT22;8858;52.308;20.994;2023-04-09T12:08:33;17.90;99.90
17483;DHT22;8858;52.308;20.994;2023-04-09T12:11:08;17.80;99.90
17483;DHT22;8858;52.308;20.994;2023-04-09T12:13:38;17.70;99.90
17483;DHT22;8858;52.308;20.994;2023-04-09T12:16:13;17.50;99.90
17483;DHT22;8858;52.308;20.994;2023-04-09T12:18:41;17.50;99.90
17483;DHT22;8858;52.308;20.994;2023-04-09T12:21:09;17.40;99.90
17483;DHT22;8858;52.308;20.994;2023-04-09T12:23:39;17.40;99.90
17483;DHT22;8858;52.308;20.994;2023-04-09T12:26:09;17.40;99.90
17483;DHT22;8858;52.308;20.994;2023-04-09T12:28:37;17.50;99.90
17483;DHT22;8858;52.308;20.994;2023-04-09T12:31:08;17.50;99.90
17483;DHT22;8858;52.308;20.994;2023-04-09T12:33:37;17.60;99.90
17483;DHT22;8858;52.308;20.994;2023-04-09T12:36:06;17.70;99.90
17483;DHT22;8858;52.308;20.994;2023-04-09T12:38:40;17.90;99.90
17483;DHT22;8858;52.308;20.994;2023-04-09T12:41:09;18.30;99.90
17483;DHT22;8858;52.308;20.994;2023-04-09T12:43:37;18.70;99.90
17483;DHT22;8858;52.308;20.994;2023-04-09T12:46:06;18.80;99.90
17483;DHT22;8858;52.308;20.994;2023-04-09T12:48:34;19.00;99.90
17483;DHT22;8858;52.308;20.994;2023-04-09T12:51:07;18.90;99.90
17483;DHT22;8858;52.308;20.994;2023-04-09T12:53:37;19.20;99.90
17483;DHT22;8858;52.308;20.994;2023-04-09T12:56:08;19.30;99.90
17483;DHT22;8858;52.308;20.994;2023-04-09T12:58:36;19.40;99.90
17483;DHT22;8858;52.308;20.994;2023-04-09T13:01:04;19.20;99.90
17483;DHT22;8858;52.308;20.994;2023-04-09T13:03:35;19.10;99.90
17483;DHT22;8858;52.308;20.994;2023-04-09T13:06:03;18.90;99.90
17483;DHT22;8858;52.308;20.994;2023-04-09T13:08:31;18.80;99.90
17483;DHT22;8858;52.308;20.994;2023-04-09T13:10:59;18.60;99.90
17483;DHT22;8858;52.308;20.994;2023-04-09T13:13:29;18.40;99.90
17483;DHT22;8858;52.308;20.994;2023-04-09T13:16:01;18.20;99.90
17483;DHT22;8858;52.308;20.994;2023-04-09T13:18:31;18.00;99.90
17483;DHT22;8858;52.308;20.994;2023-04-09T13:21:00;17.90;99.90
17483;DHT22;8858;52.308;20.994;2023-04-09T13:23:28;17.70;99.90
17483;DHT22;8858;52.308;20.994;2023-04-09T13:25:56;17.60;99.90
17483;DHT22;8858;52.308;20.994;2023-04-09T13:28:31;17.50;99.90
17483;DHT22;8858;52.308;20.994;2023-04-09T13:31:04;17.30;99.90
17483;DHT22;8858;52.308;20.994;2023-04-09T13:33:32;17.20;99.90
17483;DHT22;8858;52.308;20.994;2023-04-09T13:36:00;17.10;99.90
17483;DHT22;8858;52.308;20.994;2023-04-09T13:38:32;17.00;99.90
17483;DHT22;8858;52.308;20.994;2023-04-09T13:41:00;16.90;99.90
17483;DHT22;8858;52.308;20.994;2023-04-09T13:43:28;16.90;99.90
17483;DHT22;8858;52.308;20.994;2023-04-09T13:45:58;16.80;99.90
17483;DHT22;8858;52.308;20.994;2023-04-09T13:48:27;16.70;99.90
17483;DHT22;8858;52.308;20.994;2023-04-09T13:50:56;16.50;99.90
17483;DHT22;8858;52.308;20.994;2023-04-09T13:53:27;16.30;99.90
17483;DHT22;8858;52.308;20.994;2023-04-09T13:55:56;16.20;99.90
17483;DHT22;8858;52.308;20.994;2023-04-09T13:58:25;16.10;99.90
17483;DHT22;8858;52.308;20.994;2023-04-09T14:00:53;16.00;99.90
17483;DHT22;8858;52.308;20.994;2023-04-09T14:03:23;16.00;99.90
17483;DHT22;8858;52.308;20.994;2023-04-09T14:05:53;15.90;99.90
17483;DHT22;8858;52.308;20.994;2023-04-09T14:08:25;15.80;99.90
17483;DHT22;8858;52.308;20.994;2023-04-09T14:10:53;15.80;99.90
17483;DHT22;8858;52.308;20.994;2023-04-09T14:13:22;15.70;99.90
17483;DHT22;8858;52.308;20.994;2023-04-09T14:15:51;15.60;99.90
17483;DHT22;8858;52.308;20.994;2023-04-09T14:18:23;15.50;99.90
17483;DHT22;8858;52.308;20.994;2023-04-09T14:20:53;15.50;99.90
17483;DHT22;8858;52.308;20.994;2023-04-09T14:23:21;15.30;99.90
17483;DHT22;8858;52.308;20.994;2023-04-09T14:25:51;15.30;99.90
17483;DHT22;8858;52.308;20.994;2023-04-09T14:28:19;15.10;99.90
17483;DHT22;8858;52.308;20.994;2023-04-09T14:30:51;15.00;99.90
17483;DHT22;8858;52.308;20.994;2023-04-09T14:33:24;14.90;99.90
17483;DHT22;8858;52.308;20.994;2023-04-09T14:35:52;15.00;99.90
17483;DHT22;8858;52.308;20.994;2023-04-09T14:38:21;14.80;99.90
17483;DHT22;8858;52.308;20.994;2023-04-09T14:40:51;14.60;99.90
17483;DHT22;8858;52.308;20.994;2023-04-09T14:43:19;14.60;99.90
17483;DHT22;8858;52.308;20.994;2023-04-09T14:45:49;14.50;99.90
17483;DHT22;8858;52.308;20.994;2023-04-09T14:48:17;14.50;99.90
17483;DHT22;8858;52.308;20.994;2023-04-09T14:50:47;14.50;99.90
17483;DHT22;8858;52.308;20.994;2023-04-09T14:53:17;14.60;99.90
17483;DHT22;8858;52.308;20.994;2023-04-09T14:55:46;14.60;99.90
17483;DHT22;8858;52.308;20.994;2023-04-09T14:58:18;14.00;99.90
17483;DHT22;8858;52.308;20.994;2023-04-09T15:00:47;13.70;99.90
17483;DHT22;8858;52.308;20.994;2023-04-09T15:03:16;13.60;99.90
17483;DHT22;8858;52.308;20.994;2023-04-09T15:05:44;13.60;99.90
17483;DHT22;8858;52.308;20.994;2023-04-09T15:08:14;13.60;99.90
17483;DHT22;8858;52.308;20.994;2023-04-09T15:10:44;13.50;99.90
17483;DHT22;8858;52.308;20.994;2023-04-09T15:13:12;13.40;99.90
17483;DHT22;8858;52.308;20.994;2023-04-09T15:15:41;13.50;99.90
17483;DHT22;8858;52.308;20.994;2023-04-09T15:18:10;13.70;99.90
17483;DHT22;8858;52.308;20.994;2023-04-09T15:20:41;13.90;99.90
17483;DHT22;8858;52.308;20.994;2023-04-09T15:23:14;14.20;99.90
17483;DHT22;8858;52.308;20.994;2023-04-09T15:25:42;14.50;99.90
17483;DHT22;8858;52.308;20.994;2023-04-09T15:28:10;14.60;99.90
17483;DHT22;8858;52.308;20.994;2023-04-09T15:30:40;15.00;99.90
17483;DHT22;8858;52.308;20.994;2023-04-09T15:33:11;15.50;99.90
17483;DHT22;8858;52.308;20.994;2023-04-09T15:35:39;16.50;99.90
17483;DHT22;8858;52.308;20.994;2023-04-09T15:38:08;17.40;99.90
17483;DHT22;8858;52.308;20.994;2023-04-09T15:40:40;17.80;99.90
17483;DHT22;8858;52.308;20.994;2023-04-09T15:43:08;18.60;99.90
17483;DHT22;8858;52.308;20.994;2023-04-09T15:45:37;18.40;99.90
17483;DHT22;8858;52.308;20.994;2023-04-09T15:48:08;18.00;99.90
17483;DHT22;8858;52.308;20.994;2023-04-09T15:50:36;17.50;99.90
17483;DHT22;8858;52.308;20.994;2023-04-09T15:53:06;17.20;99.90
17483;DHT22;8858;52.308;20.994;2023-04-09T15:55:34;17.20;99.90
17483;DHT22;8858;52.308;20.994;2023-04-09T15:58:07;17.20;99.90
17483;DHT22;8858;52.308;20.994;2023-04-09T16:00:37;17.50;99.90